Time;durP1;ratioP1;P1;durP2;ratioP2;P2;SDS_P1;SDS_P2;PMS_P1;PMS_P2;Temp;Humidity;BMP_temperature;BMP_pressure;BME280_temperature;BME280_humidity;BME280_pressure;Samples;Min_cycle;Max_cycle;Signal;HPM_P1;HPM_P2
2022/05/31 00:02:35;;;;;;;9.13;6.60;;;;;;;;;;10132948;29;20244;-80
2022/05/31 00:07:39;;;;;;;7.27;6.20;;;6.00;99.90;;;;;;10132987;29;20232;-80
2022/05/31 00:12:42;;;;;;;8.10;6.23;;;5.90;99.90;;;;;;10130909;29;20260;-80
2022/05/31 00:17:45;;;;;;;11.03;7.33;;;5.70;99.90;;;;;;10130742;29;20331;-80
2022/05/31 00:22:48;;;;;;;9.27;7.20;;;5.70;99.90;;;;;;10133246;29;20288;-81
2022/05/31 00:27:51;;;;;;;10.23;7.73;;;5.60;99.90;;;;;;10130013;29;20279;-80
2022/05/31 00:32:53;;;;;;;14.07;7.73;;;5.70;99.90;;;;;;10130724;29;20288;-80
2022/05/31 00:37:58;;;;;;;11.40;7.40;;;5.50;99.90;;;;;;10129682;29;20335;-80
2022/05/31 00:43:09;;;;;;;11.10;7.17;;;5.40;99.90;;;;;;10130103;29;20689;-80
2022/05/31 00:48:34;;;;;;;14.83;7.20;;;5.30;99.90;;;;;;10129599;29;20393;-80
2022/05/31 00:53:41;;;;;;;12.63;7.43;;;5.40;99.90;;;;;;10124792;29;20244;-80
2022/05/31 00:58:54;;;;;;;11.40;7.13;;;5.20;99.90;;;;;;10130009;29;20267;-80
2022/05/31 01:03:58;;;;;;;10.30;7.37;;;5.20;99.90;;;;;;10114324;29;20243;-81
2022/05/31 01:09:01;;;;;;;15.97;7.30;;;5.00;99.90;;;;;;10131074;29;20283;-80
2022/05/31 01:14:11;;;;;;;10.07;7.33;;;5.20;99.90;;;;;;10133734;29;20256;-80
2022/05/31 01:25:09;;;;;;;13.87;7.80;;;5.20;99.90;;;;;;10116441;29;20280;-80
2022/05/31 01:30:13;;;;;;;9.17;7.40;;;5.10;99.90;;;;;;10149948;29;20214;-80
2022/05/31 01:35:23;;;;;;;12.37;7.83;;;5.00;99.90;;;;;;10142820;29;20240;-79
2022/05/31 01:40:39;;;;;;;12.17;8.27;;;5.00;99.90;;;;;;10127761;29;20255;-80
2022/05/31 01:46:08;;;;;;;9.27;7.03;;;5.00;99.90;;;;;;10126864;29;20267;-80
2022/05/31 01:51:12;;;;;;;8.93;7.47;;;5.20;99.90;;;;;;10128056;29;20247;-80
2022/05/31 01:56:15;;;;;;;13.30;7.97;;;4.90;99.90;;;;;;10127632;29;20793;-80
2022/05/31 02:01:17;;;;;;;14.10;8.13;;;4.90;99.90;;;;;;10127127;29;20259;-80
2022/05/31 02:06:31;;;;;;;10.63;7.60;;;4.80;99.90;;;;;;10126587;29;20772;-80
2022/05/31 02:11:34;;;;;;;13.50;7.47;;;4.90;99.90;;;;;;10129063;29;20244;-80
2022/05/31 02:16:47;;;;;;;11.80;7.07;;;4.90;99.90;;;;;;10133899;29;20275;-80
2022/05/31 02:22:12;;;;;;;11.80;8.43;;;5.00;99.90;;;;;;10142650;29;20260;-80
2022/05/31 02:27:14;;;;;;;8.80;7.23;;;5.20;99.90;;;;;;10134767;29;20239;-80
2022/05/31 02:32:17;;;;;;;12.13;8.80;;;5.20;99.90;;;;;;10134078;29;20611;-80
2022/05/31 02:37:20;;;;;;;11.10;6.93;;;5.00;99.90;;;;;;10133645;29;20268;-80
2022/05/31 02:42:22;;;;;;;9.93;7.13;;;4.70;99.90;;;;;;10134474;29;20287;-80
2022/05/31 02:47:25;;;;;;;12.53;8.07;;;4.80;99.90;;;;;;10118739;29;20228;-80
2022/05/31 02:52:28;;;;;;;15.43;8.47;;;4.80;99.90;;;;;;10132092;29;20249;-80
2022/05/31 02:57:31;;;;;;;11.03;8.67;;;5.10;99.90;;;;;;10119078;29;20763;-79
2022/05/31 03:02:52;;;;;;;11.50;8.63;;;5.10;99.90;;;;;;10139941;29;20275;-80
2022/05/31 03:08:13;;;;;;;12.50;8.70;;;5.00;99.90;;;;;;10135103;29;20244;-80
2022/05/31 03:13:47;;;;;;;8.23;7.27;;;4.90;99.90;;;;;;10130762;29;20307;-80
2022/05/31 03:18:57;;;;;;;11.40;8.27;;;4.70;99.90;;;;;;10134592;29;20284;-79
2022/05/31 03:24:07;;;;;;;14.30;8.53;;;4.80;99.90;;;;;;10132971;29;20354;-80
2022/05/31 03:29:11;;;;;;;13.57;9.07;;;5.00;99.90;;;;;;10130910;29;20239;-80
2022/05/31 03:34:14;;;;;;;15.27;8.87;;;5.10;99.90;;;;;;10116991;29;20252;-80
2022/05/31 03:39:17;;;;;;;12.03;7.93;;;5.00;99.90;;;;;;10116855;29;20327;-80
2022/05/31 03:44:20;;;;;;;13.53;9.00;;;5.20;99.90;;;;;;10132108;29;20702;-80
2022/05/31 03:49:48;;;;;;;14.83;10.03;;;5.20;99.90;;;;;;10130868;29;20311;-80
2022/05/31 03:54:52;;;;;;;11.13;8.97;;;5.60;99.90;;;;;;10132352;29;20678;-80
2022/05/31 04:00:14;;;;;;;14.70;10.30;;;5.80;99.90;;;;;;10133338;29;20686;-80
2022/05/31 04:05:27;;;;;;;15.33;10.27;;;6.20;99.90;;;;;;10103805;29;20231;-79
2022/05/31 04:10:30;;;;;;;15.13;9.73;;;6.40;99.90;;;;;;10131506;29;20716;-80
2022/05/31 04:15:33;;;;;;;23.13;12.00;;;6.70;99.90;;;;;;10132295;29;20291;-80
2022/05/31 04:20:42;;;;;;;20.73;10.30;;;6.90;99.90;;;;;;10130639;29;20267;-80
2022/05/31 04:25:46;;;;;;;22.17;11.40;;;7.50;99.90;;;;;;10113420;29;20259;-80
2022/05/31 04:31:07;;;;;;;14.43;10.00;;;7.90;99.90;;;;;;10131927;29;20255;-80
2022/05/31 04:36:33;;;;;;;13.90;10.07;;;8.00;99.90;;;;;;10116614;29;20789;-80
2022/05/31 04:41:35;;;;;;;13.43;9.97;;;8.00;99.90;;;;;;10072947;29;20726;-80
2022/05/31 04:46:42;;;;;;;17.97;11.50;;;8.10;99.90;;;;;;10094262;29;20629;-80
2022/05/31 04:51:53;;;;;;;12.23;9.33;;;8.20;99.90;;;;;;10114564;29;20244;-80
2022/05/31 04:57:04;;;;;;;13.43;9.77;;;8.40;99.90;;;;;;10108254;29;20239;-79
2022/05/31 05:02:10;;;;;;;16.27;10.60;;;8.60;99.90;;;;;;10121513;29;20253;-80
2022/05/31 05:07:18;;;;;;;15.60;9.93;;;8.80;99.90;;;;;;10122636;29;20233;-80
2022/05/31 05:12:21;;;;;;;14.13;10.93;;;9.00;99.90;;;;;;10122532;29;20230;-80
2022/05/31 05:17:29;;;;;;;15.13;10.10;;;9.30;99.90;;;;;;10128089;29;20272;-80
2022/05/31 05:22:32;;;;;;;20.87;10.20;;;9.50;99.90;;;;;;10120801;29;20264;-81
2022/05/31 05:27:37;;;;;;;12.80;8.37;;;9.60;99.90;;;;;;10127097;29;20222;-80
2022/05/31 05:32:39;;;;;;;12.37;9.10;;;9.80;99.90;;;;;;10128679;29;20639;-80
2022/05/31 05:38:01;;;;;;;21.20;10.90;;;10.10;99.90;;;;;;10128954;29;20249;-80
2022/05/31 05:43:10;;;;;;;12.93;8.70;;;10.20;99.90;;;;;;10127384;29;20299;-80
2022/05/31 05:48:42;;;;;;;18.23;8.83;;;10.40;99.90;;;;;;10128617;29;20647;-80
2022/05/31 05:53:45;;;;;;;13.60;8.73;;;10.50;99.90;;;;;;10128763;29;20219;-80
2022/05/31 05:59:07;;;;;;;13.67;7.37;;;10.70;99.90;;;;;;10140210;29;20243;-80
2022/05/31 06:05:07;;;;;;;10.33;7.30;;;10.90;99.90;;;;;;10124440;29;20305;-80
2022/05/31 06:10:14;;;;;;;9.87;6.53;;;11.00;99.90;;;;;;10128032;29;20211;-80
2022/05/31 06:15:21;;;;;;;7.47;5.70;;;11.20;99.90;;;;;;10125260;29;20319;-80
2022/05/31 06:20:26;;;;;;;9.07;5.13;;;11.40;99.90;;;;;;10125104;29;20615;-80
2022/05/31 06:25:30;;;;;;;7.33;4.50;;;11.50;99.90;;;;;;10126315;29;20235;-80
2022/05/31 06:30:43;;;;;;;5.90;4.60;;;12.10;99.90;;;;;;10126866;29;20294;-86
2022/05/31 06:35:46;;;;;;;5.37;4.73;;;12.20;99.90;;;;;;10124126;29;20998;-86
2022/05/31 06:40:53;;;;;;;6.97;4.30;;;12.60;99.90;;;;;;10129703;29;20247;-86
2022/05/31 06:46:34;;;;;;;9.97;3.53;;;13.00;99.90;;;;;;10098305;29;20289;-82
2022/05/31 06:57:30;;;;;;;6.47;3.50;;;;;;;;;;10105393;29;20687;-83
2022/05/31 07:02:44;;;;;;;3.73;3.00;;;15.40;99.90;;;;;;10101283;29;20264;-83
2022/05/31 07:07:47;;;;;;;6.27;3.57;;;14.80;99.90;;;;;;10107119;29;20236;-83
2022/05/31 07:13:12;;;;;;;5.00;4.50;;;14.80;99.90;;;;;;10110455;29;20305;-83
2022/05/31 07:18:35;;;;;;;3.77;2.93;;;15.10;99.90;;;;;;10133725;29;20304;-80
2022/05/31 07:23:40;;;;;;;9.40;5.13;;;15.20;99.90;;;;;;10134293;29;20805;-79
2022/05/31 07:28:44;;;;;;;4.80;3.20;;;15.70;99.90;;;;;;10134192;29;20588;-80
2022/05/31 07:33:47;;;;;;;4.67;4.20;;;16.10;99.90;;;;;;10133751;29;20252;-79
2022/05/31 07:38:50;;;;;;;6.00;2.97;;;16.20;99.90;;;;;;10133889;29;20323;-79
2022/05/31 07:43:53;;;;;;;4.63;3.97;;;16.50;99.90;;;;;;10134538;29;20260;-80
2022/05/31 07:48:58;;;;;;;7.47;2.97;;;16.60;99.90;;;;;;10123388;29;20236;-80
2022/05/31 07:54:30;;;;;;;4.80;2.50;;;17.00;96.70;;;;;;10125445;29;20303;-79
2022/05/31 08:00:05;;;;;;;5.73;4.53;;;16.30;98.90;;;;;;10089331;29;20316;-80
2022/05/31 08:05:22;;;;;;;4.17;2.50;;;17.00;98.10;;;;;;10076700;29;20697;-80
2022/05/31 08:10:24;;;;;;;5.47;2.33;;;16.70;96.00;;;;;;10090227;29;20666;-79
2022/05/31 08:15:27;;;;;;;4.07;1.83;;;17.70;93.20;;;;;;10089724;29;20275;-78
2022/05/31 08:20:29;;;;;;;2.97;1.90;;;17.70;93.50;;;;;;10073191;29;20316;-78
2022/05/31 08:25:34;;;;;;;4.33;2.30;;;17.60;93.20;;;;;;10089523;29;20240;-78
2022/05/31 08:30:36;;;;;;;3.77;2.27;;;17.30;92.70;;;;;;10088686;29;20653;-78
2022/05/31 08:35:39;;;;;;;3.63;1.70;;;17.20;92.30;;;;;;10114140;29;20316;-78
2022/05/31 08:41:13;;;;;;;3.50;2.70;;;17.50;92.60;;;;;;10130908;29;20279;-79
2022/05/31 08:46:42;;;;;;;10.63;1.97;;;18.20;89.60;;;;;;10131790;29;20335;-79
2022/05/31 08:52:03;;;;;;;2.93;1.83;;;18.80;86.30;;;;;;10131654;29;20290;-81
2022/05/31 08:57:12;;;;;;;3.47;1.83;;;19.10;83.60;;;;;;10128465;29;20255;-81
2022/05/31 09:02:24;;;;;;;5.40;2.50;;;;;;;;;;10146214;23;20259;-81
2022/05/31 09:07:46;;;;;;;4.03;2.70;;;18.90;82.20;;;;;;10166308;29;20230;-81
2022/05/31 09:13:10;;;;;;;2.90;2.60;;;19.60;82.50;;;;;;10167507;29;20685;-81
2022/05/31 09:18:15;;;;;;;3.17;2.87;;;20.00;81.30;;;;;;10165098;29;20231;-81
2022/05/31 09:23:21;;;;;;;5.23;2.60;;;19.90;80.90;;;;;;10165901;29;20689;-81
2022/05/31 09:28:39;;;;;;;7.43;3.40;;;20.10;79.40;;;;;;10166572;29;20227;-81
2022/05/31 09:34:10;;;;;;;6.13;2.70;;;20.20;79.20;;;;;;10167746;29;20302;-80
2022/05/31 09:39:24;;;;;;;3.60;3.30;;;20.10;77.30;;;;;;10157581;29;20325;-80
2022/05/31 09:44:42;;;;;;;4.63;2.17;;;19.50;80.30;;;;;;10159799;29;20248;-80
2022/05/31 09:49:50;;;;;;;3.10;2.17;;;18.60;74.50;;;;;;10166175;29;20255;-80
2022/05/31 10:01:27;;;;;;;4.13;3.73;;;18.40;76.70;;;;;;10172567;29;20247;-80
2022/05/31 10:07:04;;;;;;;4.47;3.93;;;19.10;76.70;;;;;;10151427;29;20231;-81
2022/05/31 10:12:21;;;;;;;2.77;2.20;;;19.40;73.90;;;;;;10167169;29;20231;-81
2022/05/31 10:17:42;;;;;;;4.17;3.03;;;19.40;75.90;;;;;;10165385;29;20235;-81
2022/05/31 10:23:01;;;;;;;2.93;2.63;;;19.30;74.30;;;;;;10165094;29;20255;-81
2022/05/31 10:28:29;;;;;;;3.10;1.83;;;19.50;77.50;;;;;;10179211;29;20235;-81
2022/05/31 10:33:34;;;;;;;3.23;1.73;;;19.90;72.00;;;;;;10152518;29;20701;-81
2022/05/31 10:38:46;;;;;;;3.83;3.40;;;19.60;71.30;;;;;;10174756;29;20263;-81
2022/05/31 10:43:56;;;;;;;4.40;1.77;;;19.60;74.20;;;;;;10172695;29;20326;-81
2022/05/31 10:49:18;;;;;;;5.27;4.70;;;19.70;72.80;;;;;;10174129;29;20243;-81
2022/05/31 10:54:39;;;;;;;4.57;3.97;;;19.70;76.90;;;;;;10174605;29;20236;-81
2022/05/31 10:59:52;;;;;;;3.97;1.37;;;20.00;75.00;;;;;;10157540;29;20633;-81
2022/05/31 11:05:22;;;;;;;2.87;1.83;;;19.50;65.80;;;;;;10173275;29;20326;-81
2022/05/31 11:16:30;;;;;;;8.03;3.43;;;20.40;74.00;;;;;;10172099;29;20243;-81
2022/05/31 11:22:03;;;;;;;5.60;4.87;;;20.80;67.80;;;;;;10172469;29;20641;-81
2022/05/31 11:27:31;;;;;;;9.80;2.00;;;20.90;73.20;;;;;;10173701;29;20239;-81
2022/05/31 11:33:04;;;;;;;13.93;2.47;;;21.00;71.20;;;;;;10160672;29;20584;-82
2022/05/31 11:38:38;;;;;;;2.30;1.80;;;21.10;70.00;;;;;;10168535;29;20711;-81
2022/05/31 11:44:31;;;;;;;5.27;4.77;;;21.00;71.80;;;;;;10162036;29;20681;-82
2022/05/31 11:49:46;;;;;;;4.50;2.63;;;20.90;69.60;;;;;;10165052;29;20287;-81
2022/05/31 12:00:36;;;;;;;4.27;3.90;;;21.20;70.90;;;;;;10134370;29;20244;-81
2022/05/31 12:05:49;;;;;;;5.50;4.22;;;21.20;71.30;;;;;;10163768;29;20302;-81
2022/05/31 12:10:55;;;;;;;11.53;2.37;;;21.10;71.70;;;;;;10170652;29;20235;-81
2022/05/31 12:15:58;;;;;;;3.00;1.83;;;20.80;69.20;;;;;;10168329;29;20212;-81
2022/05/31 12:21:12;;;;;;;4.43;4.13;;;20.60;69.10;;;;;;10169996;29;20278;-81
2022/05/31 12:26:21;;;;;;;3.42;1.80;;;20.80;70.90;;;;;;10167938;29;20235;-81
2022/05/31 12:31:27;;;;;;;2.20;1.85;;;21.10;68.00;;;;;;10168140;29;20775;-81
2022/05/31 12:37:05;;;;;;;3.80;2.70;;;21.20;68.50;;;;;;10169011;29;20239;-80
2022/05/31 12:42:13;;;;;;;4.33;3.90;;;21.00;69.80;;;;;;10167064;29;20784;-80
2022/05/31 12:47:32;;;;;;;6.78;1.83;;;20.90;70.30;;;;;;10170129;29;20235;-81
2022/05/31 13:03:33;;;;;;;4.32;4.00;;;21.00;70.00;;;;;;10164425;29;20236;-81
2022/05/31 13:08:59;;;;;;;4.72;4.30;;;21.00;70.30;;;;;;10169019;29;20238;-81
2022/05/31 13:19:39;;;;;;;3.13;2.83;;;20.60;68.70;;;;;;10168627;29;20215;-81
2022/05/31 13:25:02;;;;;;;4.40;4.10;;;20.40;69.60;;;;;;10169652;29;20302;-81
2022/05/31 13:30:17;;;;;;;3.40;3.17;;;20.40;72.10;;;;;;10167372;29;20271;-81
2022/05/31 13:35:25;;;;;;;4.37;4.03;;;20.30;68.10;;;;;;10168269;29;20284;-81
2022/05/31 13:40:49;;;;;;;5.53;2.00;;;20.40;72.00;;;;;;10166333;29;20279;-80
2022/05/31 13:45:58;;;;;;;5.13;4.63;;;20.30;67.80;;;;;;10156296;29;20247;-81
2022/05/31 13:51:17;;;;;;;4.87;4.47;;;20.40;70.50;;;;;;10164589;29;20749;-81
2022/05/31 13:56:25;;;;;;;4.67;3.33;;;20.60;70.90;;;;;;10165872;29;20278;-80
2022/05/31 14:01:39;;;;;;;5.80;2.33;;;21.00;68.60;;;;;;10165441;29;20267;-81
2022/05/31 14:06:42;;;;;;;3.70;2.42;;;20.70;70.50;;;;;;10129629;29;20688;-81
2022/05/31 14:11:59;;;;;;;3.80;3.50;;;20.50;71.90;;;;;;10139800;29;20620;-81
2022/05/31 14:17:02;;;;;;;13.18;2.20;;;20.50;72.10;;;;;;10172664;29;20768;-81
2022/05/31 14:22:34;;;;;;;5.40;4.90;;;20.50;69.60;;;;;;10170650;29;20251;-81
2022/05/31 14:27:39;;;;;;;5.57;5.07;;;20.50;71.70;;;;;;10173295;29;20243;-81
2022/05/31 14:32:45;;;;;;;2.87;2.53;;;20.60;71.70;;;;;;10174221;29;20769;-80
2022/05/31 14:37:51;;;;;;;3.33;1.95;;;20.40;69.00;;;;;;10158500;29;20279;-80
2022/05/31 14:42:57;;;;;;;3.60;3.25;;;20.00;70.30;;;;;;10174753;29;20305;-80
2022/05/31 14:48:35;;;;;;;4.57;4.18;;;20.20;70.90;;;;;;10171419;29;20684;-80
2022/05/31 14:53:41;;;;;;;5.65;5.13;;;20.60;71.20;;;;;;10172352;29;20322;-79
2022/05/31 14:58:45;;;;;;;5.60;5.10;;;20.70;71.70;;;;;;10173534;29;20263;-80
2022/05/31 15:03:58;;;;;;;6.65;3.35;;;20.80;71.60;;;;;;10170536;29;20736;-80
2022/05/31 15:09:22;;;;;;;3.35;1.98;;;20.80;69.40;;;;;;10169522;29;20227;-80
2022/05/31 15:19:45;;;;;;;3.25;2.17;;;20.80;69.80;;;;;;10167205;29;20235;-81
2022/05/31 15:24:51;;;;;;;6.15;4.70;;;20.60;68.90;;;;;;10164609;29;20306;-81
2022/05/31 15:29:54;;;;;;;2.38;2.17;;;20.40;71.90;;;;;;10170144;29;20231;-81
2022/05/31 15:35:04;;;;;;;10.00;4.53;;;20.30;68.90;;;;;;10165344;29;20621;-81
2022/05/31 15:40:22;;;;;;;7.68;4.97;;;20.30;73.40;;;;;;10167112;29;20290;-80
2022/05/31 15:45:25;;;;;;;10.40;3.78;;;20.10;73.60;;;;;;10168995;29;20287;-82
2022/05/31 15:50:27;;;;;;;10.30;5.03;;;20.30;72.30;;;;;;10167504;29;20252;-80
2022/05/31 15:55:30;;;;;;;6.63;5.68;;;20.40;73.30;;;;;;10168500;29;20263;-80
2022/05/31 16:00:32;;;;;;;5.95;4.97;;;20.40;73.00;;;;;;10169050;29;20271;-81
2022/05/31 16:05:36;;;;;;;9.00;5.15;;;20.30;73.60;;;;;;10170941;29;20267;-80
2022/05/31 16:10:39;;;;;;;7.20;5.93;;;20.30;73.60;;;;;;10169808;29;20227;-80
2022/05/31 16:15:42;;;;;;;7.35;2.22;;;20.40;73.70;;;;;;9830268;29;10000304;-81
2022/05/31 16:20:46;;;;;;;5.65;5.15;;;20.30;70.30;;;;;;10166160;29;20298;-81
2022/05/31 16:25:49;;;;;;;7.93;2.70;;;20.20;73.80;;;;;;10165279;29;20259;-81
2022/05/31 16:30:54;;;;;;;4.75;2.85;;;20.10;71.40;;;;;;10167993;29;20240;-81
2022/05/31 16:36:05;;;;;;;13.43;2.55;;;19.60;72.70;;;;;;10166354;29;20298;-81
2022/05/31 16:41:10;;;;;;;4.10;2.27;;;19.30;76.20;;;;;;10166471;29;20235;-81
2022/05/31 16:46:14;;;;;;;6.43;2.10;;;19.40;75.10;;;;;;10150163;29;20318;-80
2022/05/31 16:51:38;;;;;;;4.07;2.63;;;19.10;75.10;;;;;;10165785;29;20242;-81
2022/05/31 16:56:51;;;;;;;2.33;2.10;;;19.00;76.90;;;;;;10165041;29;20738;-81
2022/05/31 17:01:54;;;;;;;7.05;2.63;;;18.90;78.60;;;;;;10164822;29;20318;-80
2022/05/31 17:17:49;;;;;;;5.20;1.97;;;18.70;81.50;;;;;;10164125;29;20345;-81
2022/05/31 17:23:15;;;;;;;6.10;2.30;;;18.20;80.70;;;;;;10199566;29;20309;-81
2022/05/31 17:28:21;;;;;;;5.80;2.47;;;18.00;80.80;;;;;;10169881;29;20265;-81
2022/05/31 17:33:28;;;;;;;9.07;3.00;;;17.70;81.70;;;;;;10180056;29;20755;-81
2022/05/31 17:38:30;;;;;;;11.27;3.40;;;17.50;85.40;;;;;;10167813;29;20246;-81
2022/05/31 17:43:33;;;;;;;14.67;3.47;;;17.40;90.00;;;;;;10163710;29;20259;-81
2022/05/31 17:48:36;;;;;;;14.90;3.33;;;17.20;90.40;;;;;;10183267;29;20235;-81
2022/05/31 17:53:39;;;;;;;8.20;3.33;;;16.90;93.50;;;;;;10161361;29;20246;-81
2022/05/31 17:58:44;;;;;;;8.03;3.20;;;16.70;99.60;;;;;;10161376;29;20307;-80
2022/05/31 18:03:46;;;;;;;4.70;3.50;;;16.40;99.90;;;;;;10167299;29;20291;-80
2022/05/31 18:08:49;;;;;;;5.83;3.97;;;16.30;99.90;;;;;;10180081;29;20693;-81
2022/05/31 18:13:52;;;;;;;5.93;4.40;;;16.30;99.90;;;;;;10170407;29;20246;-81
2022/05/31 18:18:56;;;;;;;5.83;4.73;;;15.90;99.90;;;;;;10166162;29;20278;-80
2022/05/31 18:24:01;;;;;;;14.20;6.20;;;16.80;99.90;;;;;;10165692;29;20261;-81
2022/05/31 18:34:34;;;;;;;11.67;8.30;;;15.50;99.90;;;;;;10165985;29;20291;-81
2022/05/31 18:44:41;;;;;;;12.40;8.03;;;15.10;99.90;;;;;;10169388;29;20290;-81
2022/05/31 18:49:45;;;;;;;10.27;7.23;;;14.60;99.90;;;;;;10165524;29;20271;-81
2022/05/31 18:54:47;;;;;;;9.10;6.93;;;14.50;99.90;;;;;;10169293;29;20251;-81
2022/05/31 18:59:50;;;;;;;8.30;6.97;;;15.00;99.90;;;;;;10176127;29;20263;-81
2022/05/31 19:04:54;;;;;;;8.10;7.00;;;15.10;99.90;;;;;;10171994;29;20259;-82
2022/05/31 19:09:56;;;;;;;7.50;6.63;;;15.10;99.90;;;;;;10168355;29;20227;-82
2022/05/31 19:15:02;;;;;;;10.03;7.00;;;14.60;99.90;;;;;;10166337;29;20685;-82
2022/05/31 19:20:08;;;;;;;8.13;7.23;;;14.30;99.90;;;;;;10171746;29;20693;-82
2022/05/31 19:25:13;;;;;;;10.83;7.67;;;13.90;99.90;;;;;;10170388;29;20702;-81
2022/05/31 19:30:16;;;;;;;12.07;9.27;;;14.00;99.90;;;;;;10169311;29;20224;-80
2022/05/31 19:35:20;;;;;;;7.50;5.90;;;15.70;99.90;;;;;;10166471;29;20271;-81
2022/05/31 19:40:23;;;;;;;8.37;7.13;;;16.60;99.90;;;;;;10185279;29;20241;-81
2022/05/31 19:45:26;;;;;;;4.43;4.00;;;16.90;99.90;;;;;;10170188;29;20671;-81
2022/05/31 19:50:29;;;;;;;7.33;6.50;;;16.50;99.90;;;;;;10165930;29;20283;-81
2022/05/31 19:55:33;;;;;;;5.67;4.97;;;16.30;99.90;;;;;;10169941;29;20310;-81
2022/05/31 20:00:35;;;;;;;3.87;3.30;;;15.00;99.90;;;;;;10170148;29;20275;-81
2022/05/31 20:05:39;;;;;;;2.70;2.50;;;14.30;99.90;;;;;;10170821;29;20666;-81
2022/05/31 20:10:44;;;;;;;3.90;2.20;;;13.60;99.90;;;;;;10170223;29;20290;-82
2022/05/31 20:15:47;;;;;;;2.10;1.87;;;12.90;99.90;;;;;;10171514;29;20259;-81
2022/05/31 20:21:00;;;;;;;3.00;2.13;;;13.30;99.90;;;;;;10168714;29;20278;-81
2022/05/31 20:26:03;;;;;;;4.40;2.47;;;12.80;99.90;;;;;;10170779;29;20271;-82
2022/05/31 20:31:06;;;;;;;2.70;2.50;;;12.50;99.90;;;;;;10169024;29;20278;-82
2022/05/31 20:36:09;;;;;;;3.47;3.03;;;12.30;99.90;;;;;;10169064;29;20243;-81
2022/05/31 20:41:19;;;;;;;2.93;2.73;;;12.10;99.90;;;;;;10169804;29;20625;-81
2022/05/31 20:46:23;;;;;;;3.03;2.70;;;12.10;99.90;;;;;;10169892;29;20285;-81
2022/05/31 20:51:29;;;;;;;3.03;2.00;;;12.90;99.90;;;;;;10168016;29;20235;-81
2022/05/31 20:56:33;;;;;;;4.33;3.13;;;12.50;99.90;;;;;;10169718;29;20239;-81
2022/05/31 21:01:36;;;;;;;2.40;2.20;;;12.80;99.90;;;;;;10170937;29;20259;-81
2022/05/31 21:06:39;;;;;;;4.43;2.60;;;12.80;99.90;;;;;;10169108;29;20255;-81
2022/05/31 21:11:43;;;;;;;5.37;4.87;;;13.00;99.90;;;;;;10164764;29;20227;-81
2022/05/31 21:16:46;;;;;;;4.07;3.63;;;13.30;99.90;;;;;;10165946;29;20238;-81
2022/05/31 21:21:49;;;;;;;6.77;6.13;;;13.70;99.90;;;;;;10169903;29;20856;-81
2022/05/31 21:26:53;;;;;;;4.83;4.43;;;14.00;99.90;;;;;;10173218;29;20281;-81
2022/05/31 21:31:58;;;;;;;5.40;4.90;;;13.90;99.90;;;;;;10168819;29;20256;-82
2022/05/31 21:37:11;;;;;;;8.27;6.20;;;13.50;99.90;;;;;;10167562;29;20294;-81
2022/05/31 21:42:15;;;;;;;5.73;5.23;;;13.00;99.90;;;;;;10163408;29;20238;-80
2022/05/31 21:47:17;;;;;;;6.10;5.40;;;12.60;99.90;;;;;;10190097;29;20785;-80
2022/05/31 21:52:21;;;;;;;5.40;4.90;;;12.20;99.90;;;;;;10158819;29;20655;-81
2022/05/31 21:57:33;;;;;;;5.67;4.70;;;12.00;99.90;;;;;;10166844;29;20287;-81
2022/05/31 22:02:36;;;;;;;6.63;5.77;;;11.80;99.90;;;;;;10166851;29;20275;-81
2022/05/31 22:07:39;;;;;;;6.67;5.77;;;11.50;99.90;;;;;;10167150;29;20235;-80
2022/05/31 22:12:42;;;;;;;5.97;5.30;;;11.40;99.90;;;;;;10199609;29;20234;-81
2022/05/31 22:17:44;;;;;;;6.43;5.83;;;11.60;99.90;;;;;;10172724;29;20288;-81
2022/05/31 22:22:48;;;;;;;4.97;4.47;;;11.70;99.90;;;;;;10182131;29;20293;-80
2022/05/31 22:27:53;;;;;;;8.07;5.13;;;11.70;99.90;;;;;;10191330;29;20227;-80
2022/05/31 22:32:56;;;;;;;4.97;4.50;;;11.70;99.90;;;;;;10182760;29;20242;-81
2022/05/31 22:38:03;;;;;;;5.20;4.80;;;11.70;99.90;;;;;;10169563;29;20283;-81
2022/05/31 22:43:10;;;;;;;5.27;4.77;;;11.90;99.90;;;;;;10175040;29;20594;-81
2022/05/31 22:48:13;;;;;;;4.40;3.97;;;11.50;99.90;;;;;;10175611;29;20238;-80
2022/05/31 22:53:16;;;;;;;5.03;4.60;;;11.60;99.90;;;;;;10173353;29;20251;-81
2022/05/31 22:58:27;;;;;;;5.67;5.10;;;11.40;99.90;;;;;;10171918;29;20321;-81
2022/05/31 23:03:30;;;;;;;5.07;4.57;;;11.20;99.90;;;;;;10172445;29;20278;-80
2022/05/31 23:08:32;;;;;;;5.43;4.87;;;10.90;99.90;;;;;;10174852;29;20234;-81
2022/05/31 23:13:35;;;;;;;5.10;4.60;;;10.60;99.90;;;;;;10173880;29;20275;-80
2022/05/31 23:18:40;;;;;;;6.30;5.13;;;10.60;99.90;;;;;;10173263;29;20297;-80
2022/05/31 23:23:48;;;;;;;6.03;5.20;;;10.50;99.90;;;;;;10173731;29;20309;-81
2022/05/31 23:28:54;;;;;;;6.37;5.67;;;10.30;99.90;;;;;;10172141;29;20309;-81
2022/05/31 23:34:01;;;;;;;7.03;6.40;;;10.30;99.90;;;;;;10172406;29;20251;-81
2022/05/31 23:39:04;;;;;;;6.60;6.00;;;10.30;99.90;;;;;;10172758;29;20282;-81
2022/05/31 23:44:07;;;;;;;7.13;5.37;;;10.30;99.90;;;;;;10172377;29;20289;-80
2022/05/31 23:49:12;;;;;;;6.13;5.63;;;10.20;99.90;;;;;;10172934;29;20236;-80
2022/05/31 23:54:17;;;;;;;6.30;5.70;;;10.10;99.90;;;;;;10172977;29;20235;-80
2022/05/31 23:59:21;;;;;;;6.03;5.53;;;10.10;99.90;;;;;;10171746;29;20270;-81
